Time;durP1;ratioP1;P1;durP2;ratioP2;P2;SDS_P1;SDS_P2;PMS_P1;PMS_P2;Temp;Humidity;BMP_temperature;BMP_pressure;BME280_temperature;BME280_humidity;BME280_pressure;Samples;Min_cycle;Max_cycle;Signal;HPM_P1;HPM_P2
2023/06/11 00:00:26;;;;;;;1.10;1.10;;;13.10;99.90;;;;;;1924992;73;25226;-90
2023/06/11 00:03:20;;;;;;;1.10;1.10;;;13.00;99.90;;;;;;1927039;73;25322;-90
2023/06/11 00:06:05;;;;;;;1.20;1.20;;;13.00;99.90;;;;;;1917340;73;25864;-90
2023/06/11 00:08:56;;;;;;;1.70;1.17;;;13.00;99.90;;;;;;1938301;73;25229;-90
2023/06/11 00:11:44;;;;;;;1.30;1.20;;;13.00;99.90;;;;;;1915517;73;25598;-90
2023/06/11 00:17:18;;;;;;;1.10;1.10;;;12.90;99.90;;;;;;1944441;72;27085;-90
2023/06/11 00:20:12;;;;;;;3.57;1.13;;;12.90;99.90;;;;;;1937870;72;25238;-90
2023/06/11 00:23:01;;;;;;;2.57;1.30;;;12.80;99.90;;;;;;1917353;72;25227;-90
2023/06/11 00:25:50;;;;;;;1.20;1.10;;;12.80;99.90;;;;;;1918236;72;25361;-90
2023/06/11 00:28:39;;;;;;;1.40;1.30;;;12.70;99.90;;;;;;1924591;72;25229;-90
2023/06/11 00:31:27;;;;;;;1.30;1.20;;;12.70;99.90;;;;;;1915067;73;25687;-90
2023/06/11 00:34:16;;;;;;;1.20;1.10;;;12.60;99.90;;;;;;1911385;72;25345;-90
2023/06/11 00:37:05;;;;;;;1.30;1.20;;;12.60;99.90;;;;;;1918166;73;25253;-90
2023/06/11 00:39:54;;;;;;;1.37;1.20;;;12.60;99.90;;;;;;1913975;72;25204;-89
2023/06/11 00:42:45;;;;;;;1.50;1.20;;;12.50;99.90;;;;;;1907897;74;25239;-89
2023/06/11 00:45:34;;;;;;;2.43;1.37;;;12.50;99.90;;;;;;1901842;74;25234;-90
2023/06/11 00:48:23;;;;;;;1.17;1.07;;;12.40;99.90;;;;;;1897799;75;25709;-89
2023/06/11 00:51:13;;;;;;;1.40;1.30;;;12.50;99.90;;;;;;1899292;73;25329;-90
2023/06/11 00:54:02;;;;;;;1.77;1.23;;;12.30;99.90;;;;;;1844847;76;25846;-89
2023/06/11 00:56:51;;;;;;;1.07;1.07;;;12.30;99.90;;;;;;1849828;75;25343;-90
2023/06/11 02:29:38;;;;;;;4.00;1.30;;;10.80;99.90;;;;;;1935020;72;27121;-89
2023/06/11 02:32:27;;;;;;;1.27;1.17;;;10.80;99.90;;;;;;1900315;73;25238;-89
2023/06/11 02:35:16;;;;;;;1.37;1.27;;;10.70;99.90;;;;;;1871884;75;25252;-89
2023/06/11 02:38:05;;;;;;;1.40;1.30;;;10.70;99.90;;;;;;1844523;76;25629;-90
2023/06/11 02:40:53;;;;;;;1.17;1.10;;;10.70;99.90;;;;;;1898589;74;25253;-90
2023/06/11 02:43:42;;;;;;;1.00;1.00;;;10.80;99.90;;;;;;1879958;75;25756;-90
2023/06/11 02:46:31;;;;;;;1.37;1.13;;;10.90;99.90;;;;;;1882389;75;25266;-90
2023/06/11 03:45:17;;;;;;;1.67;1.50;;;14.10;99.90;;;;;;1974964;71;26612;-90
2023/06/11 03:48:16;;;;;;;1.40;1.30;;;15.00;99.90;;;;;;1910079;72;25661;-90
2023/06/11 03:51:05;;;;;;;1.70;1.20;;;15.20;99.90;;;;;;1865383;75;25214;-90
2023/06/11 03:53:55;;;;;;;0.90;0.90;;;15.30;99.90;;;;;;1895831;74;25715;-90
2023/06/11 03:57:33;;;;;;;0.90;0.90;;;15.40;99.90;;;;;;1891642;74;25835;-90
2023/06/11 04:00:44;;;;;;;1.23;1.13;;;15.40;99.90;;;;;;1867258;73;25675;-91
2023/06/11 04:06:48;;;;;;;1.20;1.10;;;16.20;99.90;;;;;;1824013;77;25243;-90
2023/06/11 04:12:31;;;;;;;2.40;1.40;;;16.00;99.90;;;;;;1945044;72;27450;-90
2023/06/11 04:18:14;;;;;;;1.43;1.27;;;16.40;99.90;;;;;;1949983;72;27016;-90
2023/06/11 04:23:46;;;;;;;2.30;1.13;;;16.50;99.90;;;;;;1893224;74;27121;-90
2023/06/11 04:26:40;;;;;;;3.03;1.40;;;16.80;99.90;;;;;;1854160;76;25236;-90
2023/06/11 04:29:29;;;;;;;2.00;1.30;;;17.30;99.90;;;;;;1869086;75;25301;-90
2023/06/11 04:32:44;;;;;;;2.27;1.67;;;16.80;99.90;;;;;;1857027;76;25264;-90
2023/06/11 04:35:38;;;;;;;3.73;1.30;;;16.70;99.90;;;;;;1876234;76;25212;-90
2023/06/11 04:38:28;;;;;;;2.03;1.30;;;16.90;99.90;;;;;;1848551;76;25707;-90
2023/06/11 04:41:22;;;;;;;2.43;1.20;;;17.60;99.90;;;;;;1855137;76;25296;-90
2023/06/11 04:44:14;;;;;;;1.30;1.20;;;17.60;99.90;;;;;;1865747;76;25617;-91
2023/06/11 04:47:05;;;;;;;2.30;1.30;;;17.70;99.90;;;;;;1867743;76;25282;-91
2023/06/11 04:49:56;;;;;;;3.80;1.40;;;17.80;99.90;;;;;;1867058;76;25291;-91
2023/06/11 04:52:56;;;;;;;1.70;1.20;;;18.00;99.90;;;;;;1865933;76;25254;-91
2023/06/11 08:41:04;;;;;;;1.23;1.00;;;19.80;99.90;;;;;;1920804;72;28785;-90
2023/06/11 08:43:54;;;;;;;1.37;1.10;;;19.90;99.90;;;;;;1860329;75;25293;-91
2023/06/11 09:38:07;;;;;;;1.10;1.00;;;20.80;99.90;;;;;;1935156;72;27474;-90
2023/06/11 09:40:59;;;;;;;1.30;1.20;;;20.20;99.90;;;;;;1861532;75;25296;-90
2023/06/11 09:43:52;;;;;;;1.30;1.20;;;19.20;99.90;;;;;;1756517;80;25198;-90
2023/06/11 09:49:45;;;;;;;1.50;1.40;;;19.80;99.90;;;;;;1893363;74;27647;-90
2023/06/11 09:52:35;;;;;;;1.27;1.17;;;20.30;99.90;;;;;;1845086;76;25776;-90
2023/06/11 09:55:26;;;;;;;2.30;1.20;;;20.00;99.90;;;;;;1845417;77;25836;-90
2023/06/11 10:01:02;;;;;;;1.00;1.00;;;20.20;99.90;;;;;;1943868;72;27044;-91
2023/06/11 10:03:51;;;;;;;2.13;0.93;;;20.50;99.90;;;;;;1916087;72;25265;-90
2023/06/11 10:06:45;;;;;;;2.47;1.40;;;20.60;99.90;;;;;;1923399;72;25277;-91
2023/06/11 10:09:37;;;;;;;1.10;1.10;;;20.80;99.90;;;;;;1923023;72;25283;-90
2023/06/11 10:12:33;;;;;;;1.20;1.20;;;21.00;99.90;;;;;;1917908;72;25347;-90
2023/06/11 10:15:23;;;;;;;2.07;1.03;;;20.50;99.90;;;;;;1925553;72;25284;-91
2023/06/11 10:18:26;;;;;;;1.20;1.20;;;20.50;99.90;;;;;;1921554;73;25306;-91
2023/06/11 10:21:16;;;;;;;2.07;1.20;;;20.80;99.90;;;;;;1936883;73;25244;-91
2023/06/11 10:24:05;;;;;;;1.10;1.10;;;20.80;99.90;;;;;;1927665;72;25275;-91
2023/06/11 10:27:10;;;;;;;1.17;1.10;;;20.80;99.90;;;;;;1928907;72;25831;-92
2023/06/11 10:30:01;;;;;;;1.20;1.10;;;20.90;99.90;;;;;;1907063;73;25227;-91
2023/06/11 10:33:20;;;;;;;1.00;1.00;;;20.80;99.90;;;;;;1931107;72;25284;-91
2023/06/11 10:36:10;;;;;;;1.33;1.03;;;20.70;99.90;;;;;;1943330;72;25220;-91
2023/06/11 10:53:03;;;;;;;1.23;1.13;;;20.80;99.90;;;;;;1921738;74;27080;-91
2023/06/11 11:27:37;;;;;;;1.20;1.10;;;21.70;99.90;;;;;;1968408;72;27050;-90
2023/06/11 11:31:19;;;;;;;1.00;1.00;;;21.60;99.90;;;;;;1949150;72;25252;-91
2023/06/11 11:34:25;;;;;;;1.47;1.17;;;21.80;99.90;;;;;;1940015;72;25144;-89
2023/06/11 11:37:32;;;;;;;2.23;1.30;;;21.70;99.90;;;;;;1949803;72;25182;-90
2023/06/11 11:40:21;;;;;;;1.17;1.10;;;21.60;99.90;;;;;;1945566;73;25218;-91
2023/06/11 11:43:13;;;;;;;2.53;1.20;;;21.30;99.90;;;;;;1960958;72;25630;-91
2023/06/11 11:46:02;;;;;;;2.63;1.20;;;21.20;99.90;;;;;;1956897;72;25221;-91
2023/06/11 11:48:57;;;;;;;1.20;1.10;;;21.20;99.90;;;;;;1959199;72;25237;-91
2023/06/11 11:51:51;;;;;;;1.40;1.10;;;21.10;99.90;;;;;;1961963;72;25314;-91
2023/06/11 11:54:35;;;;;;;1.13;1.10;;;21.20;99.90;;;;;;1953821;72;25911;-91
2023/06/11 11:57:25;;;;;;;2.47;1.03;;;21.20;99.90;;;;;;1953417;72;25774;-91
2023/06/11 12:30:12;;;;;;;2.70;1.40;;;20.80;99.90;;;;;;1955604;72;26863;-91
2023/06/11 14:52:29;;;;;;;1.53;1.20;;;21.60;98.60;;;;;;1933062;72;27059;-84
2023/06/11 14:55:18;;;;;;;3.07;1.33;;;21.50;98.50;;;;;;1900844;74;25248;-85
2023/06/11 14:58:07;;;;;;;1.30;1.20;;;21.60;99.40;;;;;;1907027;74;25679;-85
2023/06/11 15:00:56;;;;;;;2.83;1.30;;;21.50;98.80;;;;;;1898225;75;25287;-84
2023/06/11 15:03:44;;;;;;;1.67;1.20;;;21.50;99.90;;;;;;1905150;74;25759;-84
2023/06/11 15:06:34;;;;;;;5.37;1.40;;;21.60;99.30;;;;;;1895605;74;25233;-87
2023/06/11 15:09:23;;;;;;;1.83;1.30;;;21.80;98.90;;;;;;1907332;74;25289;-85
2023/06/11 15:12:12;;;;;;;1.20;1.10;;;21.80;98.00;;;;;;1821984;77;25280;-86
2023/06/11 15:15:01;;;;;;;8.03;1.47;;;21.70;98.70;;;;;;1897810;73;25226;-87
2023/06/11 15:17:50;;;;;;;1.10;1.10;;;21.60;99.00;;;;;;1896912;74;25692;-86
2023/06/11 15:20:39;;;;;;;2.80;1.30;;;21.60;99.60;;;;;;1903093;73;25537;-86
2023/06/11 15:23:28;;;;;;;3.13;1.40;;;21.60;98.60;;;;;;1905875;74;25632;-86
2023/06/11 15:28:56;;;;;;;1.60;1.10;;;21.60;99.40;;;;;;1933239;72;27039;-85
2023/06/11 15:31:45;;;;;;;1.47;1.30;;;21.60;98.90;;;;;;1893329;73;25804;-86
2023/06/11 15:34:33;;;;;;;1.20;1.20;;;21.70;99.60;;;;;;1897630;75;25274;-86
2023/06/11 15:37:22;;;;;;;3.80;1.30;;;21.70;99.30;;;;;;1880996;75;25726;-85
2023/06/11 15:42:53;;;;;;;3.37;1.47;;;21.50;99.40;;;;;;1917570;73;27051;-86
2023/06/11 15:45:41;;;;;;;1.57;1.10;;;21.70;98.70;;;;;;1877356;75;25387;-86
2023/06/11 15:48:31;;;;;;;1.87;1.20;;;21.80;99.40;;;;;;1877248;75;25300;-86
2023/06/11 15:51:20;;;;;;;3.70;1.20;;;21.80;98.60;;;;;;1886017;75;26038;-86
2023/06/11 15:54:08;;;;;;;3.57;1.30;;;21.90;99.50;;;;;;1874363;75;25222;-86
2023/06/11 15:56:57;;;;;;;1.63;1.40;;;22.00;98.00;;;;;;1875314;76;25873;-85
2023/06/11 16:02:32;;;;;;;1.30;1.20;;;21.90;98.70;;;;;;1941757;72;27114;-86
2023/06/11 16:05:21;;;;;;;1.30;1.20;;;21.80;98.80;;;;;;1921887;73;25294;-86
2023/06/11 16:08:10;;;;;;;1.17;1.17;;;21.90;99.00;;;;;;1914000;73;25816;-86
2023/06/11 16:10:58;;;;;;;3.07;1.20;;;21.90;99.70;;;;;;1920693;73;25745;-86
2023/06/11 16:16:27;;;;;;;2.60;1.30;;;22.00;99.90;;;;;;1958484;72;27532;-85
2023/06/11 16:19:16;;;;;;;1.40;1.30;;;22.10;99.70;;;;;;1928237;73;26466;-85
2023/06/11 16:22:07;;;;;;;1.60;1.20;;;22.20;99.90;;;;;;1925719;73;25249;-85
2023/06/11 16:24:55;;;;;;;2.07;1.10;;;22.30;99.80;;;;;;1927466;73;25270;-85
2023/06/11 16:27:44;;;;;;;1.30;1.20;;;22.30;99.40;;;;;;1922828;73;25591;-85
2023/06/11 16:30:33;;;;;;;1.60;1.30;;;22.10;99.20;;;;;;1882752;75;25238;-86
2023/06/11 16:33:22;;;;;;;2.13;1.27;;;22.20;99.40;;;;;;1921761;73;25322;-85
2023/06/11 16:36:10;;;;;;;2.40;1.30;;;22.00;99.30;;;;;;1928429;73;25298;-85
2023/06/11 16:38:59;;;;;;;2.93;1.40;;;22.00;99.90;;;;;;1918528;73;25657;-85
2023/06/11 17:08:49;;;;;;;2.10;1.40;;;22.10;98.30;;;;;;1958063;72;26986;-92
2023/06/11 17:11:37;;;;;;;4.23;1.20;;;22.00;99.00;;;;;;1924520;73;25300;-91
2023/06/11 17:17:14;;;;;;;1.53;1.23;;;22.10;98.60;;;;;;1947675;72;26966;-90
2023/06/11 17:20:03;;;;;;;3.40;1.30;;;22.10;98.40;;;;;;1939189;72;25181;-90
2023/06/11 17:22:51;;;;;;;3.23;1.30;;;22.00;98.50;;;;;;1942759;72;25768;-89
2023/06/11 17:25:40;;;;;;;2.20;1.40;;;22.00;98.60;;;;;;1935730;73;25282;-89
2023/06/11 17:46:03;;;;;;;2.60;1.30;;;22.10;98.40;;;;;;1972505;71;27053;-89
2023/06/11 17:48:53;;;;;;;1.40;1.30;;;22.30;97.00;;;;;;1920234;73;25716;-90
2023/06/11 17:51:42;;;;;;;3.80;1.47;;;22.20;97.50;;;;;;1999475;70;25195;-89
2023/06/11 17:54:32;;;;;;;1.97;1.30;;;22.20;98.00;;;;;;2018926;70;25277;-90
2023/06/11 17:57:21;;;;;;;2.40;1.30;;;21.90;98.40;;;;;;2000695;70;25140;-89
2023/06/11 18:00:11;;;;;;;2.67;1.30;;;21.80;98.40;;;;;;2010430;70;25166;-88
2023/06/11 18:05:42;;;;;;;1.30;1.20;;;21.70;98.40;;;;;;1985738;71;27039;-89
2023/06/11 18:08:31;;;;;;;4.43;1.33;;;21.60;99.20;;;;;;1962006;70;25269;-90
2023/06/11 18:11:20;;;;;;;4.33;1.60;;;21.60;97.30;;;;;;1961151;71;25200;-90
2023/06/11 18:14:10;;;;;;;1.80;1.30;;;21.50;97.40;;;;;;1926049;72;25236;-90
2023/06/11 18:16:58;;;;;;;1.30;1.20;;;21.40;99.60;;;;;;1936687;72;25237;-89
2023/06/11 18:19:47;;;;;;;1.87;1.27;;;21.50;98.50;;;;;;1937778;74;25262;-89
2023/06/11 18:22:35;;;;;;;5.33;1.30;;;21.50;98.70;;;;;;1916687;73;25180;-89
2023/06/11 18:25:26;;;;;;;2.93;1.30;;;21.50;99.60;;;;;;1974217;72;25169;-89
2023/06/11 18:28:15;;;;;;;1.93;1.30;;;21.30;98.80;;;;;;1974309;71;25235;-90
2023/06/11 18:31:03;;;;;;;2.70;1.40;;;21.20;99.10;;;;;;1972687;71;26827;-89
2023/06/11 18:33:52;;;;;;;1.20;1.20;;;21.20;99.20;;;;;;1973937;72;25320;-89
2023/06/11 18:36:40;;;;;;;1.43;1.30;;;21.20;99.90;;;;;;1964928;71;25740;-89
2023/06/11 18:39:29;;;;;;;2.73;1.40;;;21.10;99.90;;;;;;1970771;72;25225;-89
2023/06/11 18:45:13;;;;;;;3.17;1.50;;;21.20;99.90;;;;;;1942968;72;27047;-91
2023/06/11 18:48:03;;;;;;;1.90;1.40;;;21.20;99.90;;;;;;1918385;73;25540;-92
2023/06/11 18:50:52;;;;;;;2.03;1.47;;;21.00;99.90;;;;;;1921495;73;25257;-91
2023/06/11 18:53:40;;;;;;;3.90;1.20;;;20.80;99.90;;;;;;1918075;73;25308;-91
2023/06/11 18:59:17;;;;;;;3.70;1.40;;;21.10;99.90;;;;;;1933112;72;27882;-90
2023/06/11 19:05:27;;;;;;;2.43;1.50;;;21.10;99.90;;;;;;1977933;71;27053;-90
2023/06/11 19:08:17;;;;;;;3.40;1.40;;;21.00;99.90;;;;;;1959302;72;25902;-90
2023/06/11 19:11:06;;;;;;;2.23;1.23;;;20.80;99.90;;;;;;1991868;71;25251;-90
2023/06/11 19:13:56;;;;;;;1.30;1.20;;;20.60;99.90;;;;;;2040950;69;25227;-90
2023/06/11 19:16:47;;;;;;;1.60;1.50;;;20.40;99.90;;;;;;2053923;69;25301;-90
2023/06/11 19:19:36;;;;;;;4.33;1.47;;;20.20;99.90;;;;;;2031341;69;25915;-90
2023/06/11 19:22:25;;;;;;;4.87;1.40;;;19.90;99.90;;;;;;2034694;69;25188;-90
2023/06/11 19:25:13;;;;;;;2.30;1.40;;;19.80;99.90;;;;;;2039983;69;25557;-90
2023/06/11 19:28:03;;;;;;;4.47;1.60;;;19.80;99.90;;;;;;2046422;69;25236;-90
2023/06/11 19:30:52;;;;;;;4.80;1.63;;;19.70;99.90;;;;;;2042499;69;25228;-91
2023/06/11 19:33:41;;;;;;;6.07;1.73;;;19.50;99.90;;;;;;2055644;69;25133;-90
2023/06/11 19:36:33;;;;;;;5.87;1.60;;;19.20;99.90;;;;;;2048624;69;25145;-90
2023/06/11 19:39:23;;;;;;;5.50;1.60;;;18.90;99.90;;;;;;2045153;69;25221;-90
2023/06/11 19:42:12;;;;;;;7.70;1.60;;;18.70;99.90;;;;;;2017894;69;25760;-89
2023/06/11 19:47:46;;;;;;;5.47;1.60;;;18.30;99.90;;;;;;1939060;72;27773;-89
2023/06/11 19:50:35;;;;;;;4.63;1.80;;;18.10;99.90;;;;;;1907855;74;25253;-90
2023/06/11 19:53:27;;;;;;;6.20;2.03;;;17.90;99.90;;;;;;1874050;75;25235;-88
2023/06/11 19:56:20;;;;;;;1.80;1.60;;;17.40;99.90;;;;;;1898667;75;25173;-88
2023/06/11 19:59:11;;;;;;;3.27;1.40;;;16.90;99.90;;;;;;1868846;76;25273;-88
2023/06/11 20:02:01;;;;;;;2.53;1.77;;;16.70;99.90;;;;;;1814108;77;25211;-87
2023/06/11 20:04:50;;;;;;;4.33;1.80;;;16.50;99.90;;;;;;1893228;73;25165;-89
2023/06/11 20:07:40;;;;;;;5.00;1.60;;;16.40;99.90;;;;;;1860565;75;25262;-88
2023/06/11 20:10:34;;;;;;;4.73;1.70;;;16.30;99.90;;;;;;1861650;75;25719;-88
2023/06/11 20:13:18;;;;;;;7.37;2.33;;;16.20;99.90;;;;;;1837671;76;25255;-88
2023/06/11 20:16:07;;;;;;;3.43;1.90;;;16.00;99.90;;;;;;1853687;76;26089;-88
2023/06/11 20:18:55;;;;;;;6.90;1.93;;;15.80;99.90;;;;;;1830383;77;25280;-88
2023/06/11 20:21:47;;;;;;;8.17;2.20;;;15.60;99.90;;;;;;1868736;76;25290;-88
2023/06/11 20:24:35;;;;;;;3.97;1.90;;;15.50;99.90;;;;;;1809324;78;25246;-88
2023/06/11 20:27:24;;;;;;;6.13;1.90;;;15.30;99.90;;;;;;1860746;75;25174;-88
2023/06/11 20:36:31;;;;;;;7.13;1.80;;;14.80;99.90;;;;;;1888171;75;25275;-89
2023/06/11 20:39:20;;;;;;;5.57;2.23;;;14.60;99.90;;;;;;1900108;75;25225;-89
2023/06/11 20:45:02;;;;;;;4.10;1.80;;;14.10;99.90;;;;;;1938078;72;27218;-89
2023/06/11 21:03:59;;;;;;;2.90;1.83;;;13.40;99.90;;;;;;1943361;72;27010;-89
2023/06/11 21:06:49;;;;;;;5.37;1.90;;;13.40;99.90;;;;;;1907777;74;25165;-89
2023/06/11 21:09:37;;;;;;;3.43;2.10;;;13.20;99.90;;;;;;1902145;75;25775;-88
2023/06/11 21:12:28;;;;;;;3.27;1.97;;;12.90;99.90;;;;;;1894514;75;25218;-89
2023/06/11 21:17:55;;;;;;;4.37;1.80;;;12.70;99.90;;;;;;1949893;72;27725;-89
2023/06/11 21:20:43;;;;;;;6.00;2.00;;;12.70;99.90;;;;;;1923768;73;25252;-88
2023/06/11 21:23:32;;;;;;;11.80;2.40;;;12.60;99.90;;;;;;1912323;73;25260;-88
2023/06/11 21:26:20;;;;;;;6.80;2.10;;;12.50;99.90;;;;;;1938507;73;25721;-88
2023/06/11 21:29:09;;;;;;;6.53;2.40;;;12.30;99.90;;;;;;1913628;73;25303;-88
2023/06/11 21:31:58;;;;;;;5.07;2.40;;;12.20;99.90;;;;;;1915879;73;25250;-88
2023/06/11 21:34:46;;;;;;;7.43;2.57;;;12.20;99.90;;;;;;1932117;73;25216;-88
2023/06/11 21:37:35;;;;;;;6.00;2.53;;;12.20;99.90;;;;;;1928845;73;25235;-88
2023/06/11 21:40:24;;;;;;;6.03;2.20;;;12.00;99.90;;;;;;1926364;73;25204;-88
2023/06/11 21:43:13;;;;;;;3.17;2.20;;;11.90;99.90;;;;;;1907459;73;25405;-88
2023/06/11 21:46:01;;;;;;;3.73;2.50;;;11.80;99.90;;;;;;1886187;75;25264;-88
2023/06/11 21:48:50;;;;;;;10.17;2.50;;;11.80;99.90;;;;;;1897111;73;25202;-88
2023/06/11 21:54:20;;;;;;;5.47;1.90;;;11.60;99.90;;;;;;1950470;72;27123;-88
2023/06/11 21:57:10;;;;;;;2.63;2.10;;;11.60;99.90;;;;;;1933880;73;25220;-88
2023/06/11 22:00:00;;;;;;;4.23;2.13;;;11.60;99.90;;;;;;1914469;73;25280;-88
2023/06/11 22:02:48;;;;;;;5.70;2.30;;;11.50;99.90;;;;;;1919751;74;25222;-88
2023/06/11 22:05:37;;;;;;;7.23;2.60;;;11.40;99.90;;;;;;1919062;73;25246;-88
2023/06/11 22:08:26;;;;;;;6.63;2.47;;;11.20;99.90;;;;;;1938280;73;25889;-88
2023/06/11 22:11:14;;;;;;;4.57;2.40;;;11.20;99.90;;;;;;1925813;73;25225;-88
2023/06/11 22:14:03;;;;;;;3.77;2.20;;;11.10;99.90;;;;;;1937594;73;25243;-88
2023/06/11 22:16:51;;;;;;;2.97;2.20;;;11.00;99.90;;;;;;1920315;73;25759;-88
2023/06/11 22:19:44;;;;;;;2.20;2.00;;;10.90;99.90;;;;;;1918081;73;25253;-88
2023/06/11 22:22:31;;;;;;;8.70;2.33;;;10.90;99.90;;;;;;1922031;73;25290;-88
2023/06/11 22:25:20;;;;;;;4.27;2.77;;;10.80;99.90;;;;;;1921998;73;25297;-88
2023/06/11 22:28:08;;;;;;;4.03;2.50;;;10.70;99.90;;;;;;1929460;73;26439;-88
2023/06/11 22:30:57;;;;;;;7.07;2.43;;;10.60;99.90;;;;;;1916432;73;25617;-88
2023/06/11 22:33:46;;;;;;;6.70;2.20;;;10.50;99.90;;;;;;1915297;73;25210;-88
2023/06/11 22:36:35;;;;;;;5.30;2.30;;;10.40;99.90;;;;;;1920380;73;26425;-88
2023/06/11 22:39:24;;;;;;;7.63;2.37;;;10.40;99.90;;;;;;1918352;73;25764;-89
2023/06/11 22:45:34;;;;;;;8.07;2.63;;;10.50;99.90;;;;;;1981409;71;26423;-88
2023/06/11 22:48:23;;;;;;;9.93;2.90;;;10.50;99.90;;;;;;2008395;70;25235;-91
2023/06/11 22:51:12;;;;;;;4.90;2.70;;;10.40;99.90;;;;;;2023581;69;25301;-88
2023/06/11 22:54:01;;;;;;;4.20;2.57;;;10.30;99.90;;;;;;2015685;70;25301;-89
2023/06/11 22:59:35;;;;;;;4.47;2.40;;;10.20;99.90;;;;;;1959198;72;27446;-88
2023/06/11 23:02:24;;;;;;;6.57;2.60;;;10.10;99.90;;;;;;1937366;72;25488;-88
2023/06/11 23:05:14;;;;;;;3.70;2.30;;;10.00;99.90;;;;;;1927522;73;25849;-88
2023/06/11 23:10:45;;;;;;;2.73;2.40;;;10.00;99.90;;;;;;1929081;72;27050;-88
2023/06/11 23:13:34;;;;;;;3.60;2.60;;;10.00;99.90;;;;;;1913838;73;25730;-88
2023/06/11 23:16:24;;;;;;;4.27;2.90;;;9.90;99.90;;;;;;1900932;73;25767;-88
2023/06/11 23:19:13;;;;;;;4.90;2.70;;;9.80;99.90;;;;;;1870532;75;25792;-88
2023/06/11 23:22:01;;;;;;;4.70;2.13;;;9.80;99.90;;;;;;1879250;75;25265;-88
2023/06/11 23:24:50;;;;;;;4.00;2.67;;;9.80;99.90;;;;;;1867626;75;25233;-88
2023/06/11 23:27:43;;;;;;;4.57;2.60;;;9.70;99.90;;;;;;1834389;77;25283;-88
2023/06/11 23:33:12;;;;;;;7.60;2.93;;;9.60;99.90;;;;;;1942507;72;27013;-88
2023/06/11 23:35:59;;;;;;;3.17;2.20;;;9.50;99.90;;;;;;1895542;73;25566;-87
2023/06/11 23:38:48;;;;;;;4.70;2.30;;;9.50;99.90;;;;;;1905091;73;25229;-88
2023/06/11 23:41:37;;;;;;;3.30;2.53;;;9.40;99.90;;;;;;1876686;75;25731;-88
2023/06/11 23:44:26;;;;;;;3.93;2.37;;;9.40;99.90;;;;;;1853366;76;25841;-88
2023/06/11 23:47:14;;;;;;;3.33;2.33;;;9.40;99.90;;;;;;1859418;76;25675;-89
2023/06/11 23:50:04;;;;;;;3.30;2.20;;;9.40;99.90;;;;;;1868347;76;25255;-88
2023/06/11 23:52:53;;;;;;;7.37;2.20;;;9.40;99.90;;;;;;1861549;76;26115;-88
2023/06/11 23:55:42;;;;;;;2.47;2.20;;;9.40;99.90;;;;;;1854865;75;25259;-88
2023/06/11 23:58:31;;;;;;;2.97;2.40;;;9.40;99.90;;;;;;1858264;75;25249;-89
